Patton Village, California
Current Conditions -  °F | °C
As of 5:35 PM on Sunday 23 Nov 2014 (Local Time) from KRTS Reporting Station
Few Clouds Few Clouds  
Wind Chill: 37°   Ceiling: Unl
Heat Index: 37°   Visibility: 10mi
Dew Point: 25°   Wind: 0mph
Humidity: 60%   Direction: NA
Pressure: 30.3"   Gusts: NA
Location:  40.3266°N, 120.122°W
Report Text: KRTS 240135Z AUTO 00000KT 10SM FEW080 03/M04 A3030 RMK AO2
Loading
Personal Weather Stations






























Interactive Weather Map New forecast layout! Learn more

10-Day Weather Forecast

Advertisements
Track Severe Weather on mobile